sensor_id;sensor_type;location;lat;lon;timestamp;temperature;humidity
21834;DHT22;11079;51.092;3.458;2022-08-18T00:02:24;19.00;99.90
21834;DHT22;11079;51.092;3.458;2022-08-18T00:04:51;18.90;99.90
21834;DHT22;11079;51.092;3.458;2022-08-18T00:07:20;18.90;99.90
21834;DHT22;11079;51.092;3.458;2022-08-18T00:09:47;18.90;99.90
21834;DHT22;11079;51.092;3.458;2022-08-18T00:12:22;18.90;99.90
21834;DHT22;11079;51.092;3.458;2022-08-18T00:14:48;18.90;99.90
21834;DHT22;11079;51.092;3.458;2022-08-18T00:17:15;18.80;99.90
21834;DHT22;11079;51.092;3.458;2022-08-18T00:19:41;18.80;99.90
21834;DHT22;11079;51.092;3.458;2022-08-18T00:22:07;18.70;99.90
21834;DHT22;11079;51.092;3.458;2022-08-18T00:24:32;18.70;99.90
21834;DHT22;11079;51.092;3.458;2022-08-18T00:26:58;18.80;99.90
21834;DHT22;11079;51.092;3.458;2022-08-18T00:29:24;18.80;99.90
21834;DHT22;11079;51.092;3.458;2022-08-18T00:31:50;18.80;99.90
21834;DHT22;11079;51.092;3.458;2022-08-18T00:34:16;18.80;99.90
21834;DHT22;11079;51.092;3.458;2022-08-18T00:36:42;18.80;99.90
21834;DHT22;11079;51.092;3.458;2022-08-18T00:39:08;18.80;99.90
21834;DHT22;11079;51.092;3.458;2022-08-18T00:41:33;18.90;99.90
21834;DHT22;11079;51.092;3.458;2022-08-18T00:43:59;18.80;99.90
21834;DHT22;11079;51.092;3.458;2022-08-18T00:46:30;18.80;99.90
21834;DHT22;11079;51.092;3.458;2022-08-18T00:48:57;18.80;99.90
21834;DHT22;11079;51.092;3.458;2022-08-18T00:51:44;18.80;99.90
21834;DHT22;11079;51.092;3.458;2022-08-18T00:54:23;18.80;99.90
21834;DHT22;11079;51.092;3.458;2022-08-18T00:56:51;18.80;99.90
21834;DHT22;11079;51.092;3.458;2022-08-18T00:59:26;18.90;99.90
21834;DHT22;11079;51.092;3.458;2022-08-18T01:01:54;18.80;99.90
21834;DHT22;11079;51.092;3.458;2022-08-18T01:04:51;18.60;99.90
21834;DHT22;11079;51.092;3.458;2022-08-18T01:07:23;18.50;99.90
21834;DHT22;11079;51.092;3.458;2022-08-18T01:09:51;18.50;99.90
21834;DHT22;11079;51.092;3.458;2022-08-18T01:12:18;18.40;99.90
21834;DHT22;11079;51.092;3.458;2022-08-18T01:14:44;18.40;99.90
21834;DHT22;11079;51.092;3.458;2022-08-18T01:17:11;18.40;99.90
21834;DHT22;11079;51.092;3.458;2022-08-18T01:19:57;18.50;99.90
21834;DHT22;11079;51.092;3.458;2022-08-18T01:25:14;18.70;99.90
21834;DHT22;11079;51.092;3.458;2022-08-18T01:27:59;18.70;99.90
21834;DHT22;11079;51.092;3.458;2022-08-18T01:30:29;18.50;99.90
21834;DHT22;11079;51.092;3.458;2022-08-18T01:32:55;18.50;99.90
21834;DHT22;11079;51.092;3.458;2022-08-18T01:35:23;18.50;99.90
21834;DHT22;11079;51.092;3.458;2022-08-18T01:37:53;18.50;99.90
21834;DHT22;11079;51.092;3.458;2022-08-18T01:40:21;18.50;99.90
21834;DHT22;11079;51.092;3.458;2022-08-18T01:42:47;18.40;99.90
21834;DHT22;11079;51.092;3.458;2022-08-18T01:45:15;18.40;99.90
21834;DHT22;11079;51.092;3.458;2022-08-18T01:47:41;18.40;99.90
21834;DHT22;11079;51.092;3.458;2022-08-18T01:50:08;18.40;99.90
21834;DHT22;11079;51.092;3.458;2022-08-18T01:52:37;18.40;99.90
21834;DHT22;11079;51.092;3.458;2022-08-18T01:55:03;18.30;99.90
21834;DHT22;11079;51.092;3.458;2022-08-18T01:57:29;18.30;99.90
21834;DHT22;11079;51.092;3.458;2022-08-18T01:59:55;18.30;99.90
21834;DHT22;11079;51.092;3.458;2022-08-18T02:02:27;18.30;99.90
21834;DHT22;11079;51.092;3.458;2022-08-18T02:05:02;18.40;99.90
21834;DHT22;11079;51.092;3.458;2022-08-18T02:07:29;18.30;99.90
21834;DHT22;11079;51.092;3.458;2022-08-18T02:09:55;18.20;99.90
21834;DHT22;11079;51.092;3.458;2022-08-18T02:12:20;18.20;99.90
21834;DHT22;11079;51.092;3.458;2022-08-18T02:14:46;18.10;99.90
21834;DHT22;11079;51.092;3.458;2022-08-18T02:17:14;18.10;99.90
21834;DHT22;11079;51.092;3.458;2022-08-18T02:19:42;18.10;99.90
21834;DHT22;11079;51.092;3.458;2022-08-18T02:22:14;18.10;99.90
21834;DHT22;11079;51.092;3.458;2022-08-18T02:24:41;18.10;99.90
21834;DHT22;11079;51.092;3.458;2022-08-18T02:27:07;18.10;99.90
21834;DHT22;11079;51.092;3.458;2022-08-18T02:29:34;18.10;99.90
21834;DHT22;11079;51.092;3.458;2022-08-18T02:32:00;18.10;99.90
21834;DHT22;11079;51.092;3.458;2022-08-18T02:34:25;18.10;99.90
21834;DHT22;11079;51.092;3.458;2022-08-18T02:36:51;18.00;99.90
21834;DHT22;11079;51.092;3.458;2022-08-18T02:39:17;18.00;99.90
21834;DHT22;11079;51.092;3.458;2022-08-18T02:41:43;18.00;99.90
21834;DHT22;11079;51.092;3.458;2022-08-18T02:44:09;17.90;99.90
21834;DHT22;11079;51.092;3.458;2022-08-18T02:46:36;17.90;99.90
21834;DHT22;11079;51.092;3.458;2022-08-18T02:49:02;17.90;99.90
21834;DHT22;11079;51.092;3.458;2022-08-18T02:51:28;18.10;99.90
21834;DHT22;11079;51.092;3.458;2022-08-18T02:53:54;18.10;99.90
21834;DHT22;11079;51.092;3.458;2022-08-18T02:56:24;18.00;99.90
21834;DHT22;11079;51.092;3.458;2022-08-18T02:58:58;17.90;99.90
21834;DHT22;11079;51.092;3.458;2022-08-18T03:01:27;17.70;99.90
21834;DHT22;11079;51.092;3.458;2022-08-18T03:03:55;17.70;99.90
21834;DHT22;11079;51.092;3.458;2022-08-18T03:06:22;17.70;99.90
21834;DHT22;11079;51.092;3.458;2022-08-18T03:08:48;17.70;99.90
21834;DHT22;11079;51.092;3.458;2022-08-18T03:11:19;17.80;99.90
21834;DHT22;11079;51.092;3.458;2022-08-18T03:13:45;17.80;99.90
21834;DHT22;11079;51.092;3.458;2022-08-18T03:16:11;17.80;99.90
21834;DHT22;11079;51.092;3.458;2022-08-18T03:18:37;17.80;99.90
21834;DHT22;11079;51.092;3.458;2022-08-18T03:21:12;17.70;99.90
21834;DHT22;11079;51.092;3.458;2022-08-18T03:23:38;17.70;99.90
21834;DHT22;11079;51.092;3.458;2022-08-18T03:26:09;17.60;99.90
21834;DHT22;11079;51.092;3.458;2022-08-18T03:28:37;17.60;99.90
21834;DHT22;11079;51.092;3.458;2022-08-18T03:31:04;17.60;99.90
21834;DHT22;11079;51.092;3.458;2022-08-18T03:33:30;17.50;99.90
21834;DHT22;11079;51.092;3.458;2022-08-18T03:35:55;17.40;99.90
21834;DHT22;11079;51.092;3.458;2022-08-18T03:38:27;17.30;99.90
21834;DHT22;11079;51.092;3.458;2022-08-18T03:40:53;17.40;99.90
21834;DHT22;11079;51.092;3.458;2022-08-18T03:43:19;17.40;99.90
21834;DHT22;11079;51.092;3.458;2022-08-18T03:45:44;17.40;99.90
21834;DHT22;11079;51.092;3.458;2022-08-18T03:48:10;17.50;99.90
21834;DHT22;11079;51.092;3.458;2022-08-18T03:50:36;17.30;99.90
21834;DHT22;11079;51.092;3.458;2022-08-18T03:53:02;17.30;99.90
21834;DHT22;11079;51.092;3.458;2022-08-18T03:55:30;17.40;99.90
21834;DHT22;11079;51.092;3.458;2022-08-18T03:58:00;17.30;99.90
21834;DHT22;11079;51.092;3.458;2022-08-18T04:00:30;17.30;99.90
21834;DHT22;11079;51.092;3.458;2022-08-18T04:02:57;17.40;99.90
21834;DHT22;11079;51.092;3.458;2022-08-18T04:05:26;17.40;99.90
21834;DHT22;11079;51.092;3.458;2022-08-18T04:07:53;17.30;99.90
21834;DHT22;11079;51.092;3.458;2022-08-18T04:10:19;17.30;99.90
21834;DHT22;11079;51.092;3.458;2022-08-18T04:12:44;17.30;99.90
21834;DHT22;11079;51.092;3.458;2022-08-18T04:15:10;17.30;99.90
21834;DHT22;11079;51.092;3.458;2022-08-18T04:17:36;17.30;99.90
21834;DHT22;11079;51.092;3.458;2022-08-18T04:20:02;17.30;99.90
21834;DHT22;11079;51.092;3.458;2022-08-18T04:22:28;17.40;99.90
21834;DHT22;11079;51.092;3.458;2022-08-18T04:24:57;17.30;99.90
21834;DHT22;11079;51.092;3.458;2022-08-18T04:27:25;17.30;99.90
21834;DHT22;11079;51.092;3.458;2022-08-18T04:29:51;17.30;99.90
21834;DHT22;11079;51.092;3.458;2022-08-18T04:32:17;17.20;99.90
21834;DHT22;11079;51.092;3.458;2022-08-18T04:34:44;17.20;99.90
21834;DHT22;11079;51.092;3.458;2022-08-18T04:37:10;17.20;99.90
21834;DHT22;11079;51.092;3.458;2022-08-18T04:39:36;17.20;99.90
21834;DHT22;11079;51.092;3.458;2022-08-18T04:42:02;17.20;99.90
21834;DHT22;11079;51.092;3.458;2022-08-18T04:44:29;17.20;99.90
21834;DHT22;11079;51.092;3.458;2022-08-18T04:46:54;17.30;99.90
21834;DHT22;11079;51.092;3.458;2022-08-18T04:49:24;17.30;99.90
21834;DHT22;11079;51.092;3.458;2022-08-18T04:51:51;17.30;99.90
21834;DHT22;11079;51.092;3.458;2022-08-18T04:54:37;17.40;99.90
21834;DHT22;11079;51.092;3.458;2022-08-18T04:57:22;17.50;99.90
21834;DHT22;11079;51.092;3.458;2022-08-18T04:59:49;17.50;99.90
21834;DHT22;11079;51.092;3.458;2022-08-18T05:02:17;17.50;99.90
21834;DHT22;11079;51.092;3.458;2022-08-18T05:04:44;17.60;99.90
21834;DHT22;11079;51.092;3.458;2022-08-18T05:07:18;17.70;99.90
21834;DHT22;11079;51.092;3.458;2022-08-18T05:09:45;17.70;99.90
21834;DHT22;11079;51.092;3.458;2022-08-18T05:12:12;17.80;99.90
21834;DHT22;11079;51.092;3.458;2022-08-18T05:14:43;17.80;99.90
21834;DHT22;11079;51.092;3.458;2022-08-18T05:17:11;17.90;99.90
21834;DHT22;11079;51.092;3.458;2022-08-18T05:19:37;18.10;99.90
21834;DHT22;11079;51.092;3.458;2022-08-18T05:22:04;18.20;99.90
21834;DHT22;11079;51.092;3.458;2022-08-18T05:24:31;18.60;99.90
21834;DHT22;11079;51.092;3.458;2022-08-18T05:27:00;18.80;99.90
21834;DHT22;11079;51.092;3.458;2022-08-18T05:29:26;19.10;99.90
21834;DHT22;11079;51.092;3.458;2022-08-18T05:31:52;19.30;99.90
21834;DHT22;11079;51.092;3.458;2022-08-18T05:34:20;19.50;99.90
21834;DHT22;11079;51.092;3.458;2022-08-18T05:42:05;20.20;99.90
21834;DHT22;11079;51.092;3.458;2022-08-18T05:44:34;20.50;99.90
21834;DHT22;11079;51.092;3.458;2022-08-18T05:49:44;21.10;99.90
21834;DHT22;11079;51.092;3.458;2022-08-18T05:52:55;21.50;99.90
21834;DHT22;11079;51.092;3.458;2022-08-18T05:55:45;22.00;99.90
21834;DHT22;11079;51.092;3.458;2022-08-18T05:58:38;22.50;99.90
21834;DHT22;11079;51.092;3.458;2022-08-18T06:01:18;22.90;99.90
21834;DHT22;11079;51.092;3.458;2022-08-18T06:03:57;23.40;99.90
21834;DHT22;11079;51.092;3.458;2022-08-18T06:06:27;23.90;99.90
21834;DHT22;11079;51.092;3.458;2022-08-18T06:09:20;24.30;99.90
21834;DHT22;11079;51.092;3.458;2022-08-18T06:11:49;24.70;99.90
21834;DHT22;11079;51.092;3.458;2022-08-18T06:14:15;25.10;99.90
21834;DHT22;11079;51.092;3.458;2022-08-18T06:19:53;26.10;99.90
21834;DHT22;11079;51.092;3.458;2022-08-18T06:25:54;27.40;99.90
21834;DHT22;11079;51.092;3.458;2022-08-18T06:28:22;27.90;99.90
21834;DHT22;11079;51.092;3.458;2022-08-18T06:31:04;28.40;99.90
21834;DHT22;11079;51.092;3.458;2022-08-18T06:36:30;28.90;99.90
21834;DHT22;11079;51.092;3.458;2022-08-18T06:39:17;29.40;99.90
21834;DHT22;11079;51.092;3.458;2022-08-18T06:41:47;29.90;99.90
21834;DHT22;11079;51.092;3.458;2022-08-18T06:47:13;30.80;99.90
21834;DHT22;11079;51.092;3.458;2022-08-18T06:49:53;31.30;99.90
21834;DHT22;11079;51.092;3.458;2022-08-18T06:52:28;31.50;99.90
21834;DHT22;11079;51.092;3.458;2022-08-18T06:55:00;31.80;99.90
21834;DHT22;11079;51.092;3.458;2022-08-18T06:57:35;32.40;99.90
21834;DHT22;11079;51.092;3.458;2022-08-18T07:05:35;33.70;99.90
21834;DHT22;11079;51.092;3.458;2022-08-18T07:08:31;33.90;99.90
21834;DHT22;11079;51.092;3.458;2022-08-18T07:13:44;34.50;99.90
21834;DHT22;11079;51.092;3.458;2022-08-18T07:16:28;34.90;99.90
21834;DHT22;11079;51.092;3.458;2022-08-18T07:19:09;35.30;99.90
21834;DHT22;11079;51.092;3.458;2022-08-18T07:21:37;35.50;99.90
21834;DHT22;11079;51.092;3.458;2022-08-18T07:27:07;35.60;99.90
21834;DHT22;11079;51.092;3.458;2022-08-18T07:29:40;35.60;99.90
21834;DHT22;11079;51.092;3.458;2022-08-18T07:32:18;35.40;99.90
21834;DHT22;11079;51.092;3.458;2022-08-18T07:34:49;35.40;99.90
21834;DHT22;11079;51.092;3.458;2022-08-18T07:39:57;35.80;99.90
21834;DHT22;11079;51.092;3.458;2022-08-18T07:42:45;35.90;99.90
21834;DHT22;11079;51.092;3.458;2022-08-18T07:58:55;35.60;99.90
21834;DHT22;11079;51.092;3.458;2022-08-18T08:01:48;35.80;99.90
21834;DHT22;11079;51.092;3.458;2022-08-18T08:04:29;35.30;99.90
21834;DHT22;11079;51.092;3.458;2022-08-18T08:07:28;33.90;99.90
21834;DHT22;11079;51.092;3.458;2022-08-18T08:12:56;31.40;99.90
21834;DHT22;11079;51.092;3.458;2022-08-18T08:21:17;29.20;99.90
21834;DHT22;11079;51.092;3.458;2022-08-18T08:26:55;29.10;99.90
21834;DHT22;11079;51.092;3.458;2022-08-18T08:30:24;29.20;99.90
21834;DHT22;11079;51.092;3.458;2022-08-18T08:32:35;29.40;99.90
21834;DHT22;11079;51.092;3.458;2022-08-18T08:35:12;29.80;99.90
21834;DHT22;11079;51.092;3.458;2022-08-18T08:40:50;31.80;99.90
21834;DHT22;11079;51.092;3.458;2022-08-18T08:43:33;32.70;99.90
21834;DHT22;11079;51.092;3.458;2022-08-18T08:46:26;35.80;99.90
21834;DHT22;11079;51.092;3.458;2022-08-18T08:49:16;37.00;99.90
21834;DHT22;11079;51.092;3.458;2022-08-18T08:51:51;36.30;99.90
21834;DHT22;11079;51.092;3.458;2022-08-18T08:54:42;35.90;99.90
21834;DHT22;11079;51.092;3.458;2022-08-18T08:57:10;36.10;99.90
21834;DHT22;11079;51.092;3.458;2022-08-18T08:59:38;37.20;99.90
21834;DHT22;11079;51.092;3.458;2022-08-18T09:15:48;38.80;94.00
21834;DHT22;11079;51.092;3.458;2022-08-18T09:21:39;39.40;91.70
21834;DHT22;11079;51.092;3.458;2022-08-18T09:24:19;39.60;92.10
21834;DHT22;11079;51.092;3.458;2022-08-18T09:26:53;40.90;90.80
21834;DHT22;11079;51.092;3.458;2022-08-18T09:37:22;35.70;94.50
21834;DHT22;11079;51.092;3.458;2022-08-18T09:40:13;34.60;97.00
21834;DHT22;11079;51.092;3.458;2022-08-18T09:43:28;33.70;99.10
21834;DHT22;11079;51.092;3.458;2022-08-18T09:45:58;33.00;99.90
21834;DHT22;11079;51.092;3.458;2022-08-18T09:48:36;32.70;99.90
21834;DHT22;11079;51.092;3.458;2022-08-18T09:56:16;32.60;99.90
21834;DHT22;11079;51.092;3.458;2022-08-18T09:58:50;32.70;99.90
21834;DHT22;11079;51.092;3.458;2022-08-18T10:06:39;32.70;99.90
21834;DHT22;11079;51.092;3.458;2022-08-18T10:11:57;32.10;99.90
21834;DHT22;11079;51.092;3.458;2022-08-18T10:20:17;30.90;99.90
21834;DHT22;11079;51.092;3.458;2022-08-18T10:22:48;30.50;99.90
21834;DHT22;11079;51.092;3.458;2022-08-18T10:25:31;30.50;99.90
21834;DHT22;11079;51.092;3.458;2022-08-18T10:27:57;30.90;99.90
21834;DHT22;11079;51.092;3.458;2022-08-18T10:32:59;32.20;99.90
21834;DHT22;11079;51.092;3.458;2022-08-18T10:40:39;38.10;96.40
21834;DHT22;11079;51.092;3.458;2022-08-18T10:43:25;40.10;94.00
21834;DHT22;11079;51.092;3.458;2022-08-18T10:45:56;40.70;90.30
21834;DHT22;11079;51.092;3.458;2022-08-18T10:48:31;42.00;84.20
21834;DHT22;11079;51.092;3.458;2022-08-18T10:59:42;39.90;80.40
21834;DHT22;11079;51.092;3.458;2022-08-18T11:05:04;38.00;85.70
21834;DHT22;11079;51.092;3.458;2022-08-18T11:07:31;38.70;84.10
21834;DHT22;11079;51.092;3.458;2022-08-18T11:09:58;39.50;83.50
21834;DHT22;11079;51.092;3.458;2022-08-18T11:20:53;39.70;79.10
21834;DHT22;11079;51.092;3.458;2022-08-18T11:23:38;38.00;84.90
21834;DHT22;11079;51.092;3.458;2022-08-18T11:26:15;37.30;88.00
21834;DHT22;11079;51.092;3.458;2022-08-18T11:28:41;38.10;87.30
21834;DHT22;11079;51.092;3.458;2022-08-18T11:31:07;38.60;85.10
21834;DHT22;11079;51.092;3.458;2022-08-18T11:33:33;39.70;84.20
21834;DHT22;11079;51.092;3.458;2022-08-18T11:35:59;40.30;82.60
21834;DHT22;11079;51.092;3.458;2022-08-18T11:38:26;40.90;80.20
21834;DHT22;11079;51.092;3.458;2022-08-18T11:41:15;41.40;77.50
21834;DHT22;11079;51.092;3.458;2022-08-18T11:43:43;42.20;70.20
21834;DHT22;11079;51.092;3.458;2022-08-18T11:46:22;43.00;69.30
21834;DHT22;11079;51.092;3.458;2022-08-18T11:48:50;42.90;69.40
21834;DHT22;11079;51.092;3.458;2022-08-18T11:51:28;42.70;68.30
21834;DHT22;11079;51.092;3.458;2022-08-18T11:56:37;41.70;70.00
21834;DHT22;11079;51.092;3.458;2022-08-18T11:59:28;39.60;69.50
21834;DHT22;11079;51.092;3.458;2022-08-18T12:01:57;39.60;72.80
21834;DHT22;11079;51.092;3.458;2022-08-18T12:04:38;41.00;72.20
21834;DHT22;11079;51.092;3.458;2022-08-18T12:07:09;41.40;70.40
21834;DHT22;11079;51.092;3.458;2022-08-18T12:09:48;39.50;72.80
21834;DHT22;11079;51.092;3.458;2022-08-18T12:12:24;37.40;77.60
21834;DHT22;11079;51.092;3.458;2022-08-18T12:17:21;35.40;85.10
21834;DHT22;11079;51.092;3.458;2022-08-18T12:19:47;36.10;85.70
21834;DHT22;11079;51.092;3.458;2022-08-18T12:22:20;37.60;82.80
21834;DHT22;11079;51.092;3.458;2022-08-18T12:24:50;37.60;79.40
21834;DHT22;11079;51.092;3.458;2022-08-18T12:27:19;38.20;79.70
21834;DHT22;11079;51.092;3.458;2022-08-18T12:29:46;39.10;76.00
21834;DHT22;11079;51.092;3.458;2022-08-18T12:32:12;39.80;75.30
21834;DHT22;11079;51.092;3.458;2022-08-18T12:34:38;40.70;76.90
21834;DHT22;11079;51.092;3.458;2022-08-18T12:37:08;40.10;74.70
21834;DHT22;11079;51.092;3.458;2022-08-18T12:39:35;38.90;76.70
21834;DHT22;11079;51.092;3.458;2022-08-18T12:42:00;38.80;78.00
21834;DHT22;11079;51.092;3.458;2022-08-18T12:44:27;39.20;77.10
21834;DHT22;11079;51.092;3.458;2022-08-18T12:46:53;40.20;75.20
21834;DHT22;11079;51.092;3.458;2022-08-18T12:49:24;40.40;72.40
21834;DHT22;11079;51.092;3.458;2022-08-18T12:51:50;39.00;74.10
21834;DHT22;11079;51.092;3.458;2022-08-18T12:54:17;37.40;78.10
21834;DHT22;11079;51.092;3.458;2022-08-18T12:56:46;36.70;79.90
21834;DHT22;11079;51.092;3.458;2022-08-18T12:59:13;36.00;81.80
21834;DHT22;11079;51.092;3.458;2022-08-18T13:01:39;35.60;83.00
21834;DHT22;11079;51.092;3.458;2022-08-18T13:04:05;35.80;82.90
21834;DHT22;11079;51.092;3.458;2022-08-18T13:06:35;36.40;84.30
21834;DHT22;11079;51.092;3.458;2022-08-18T13:09:02;36.60;84.20
21834;DHT22;11079;51.092;3.458;2022-08-18T13:11:28;37.90;80.80
21834;DHT22;11079;51.092;3.458;2022-08-18T13:13:53;38.60;76.90
21834;DHT22;11079;51.092;3.458;2022-08-18T13:16:20;39.10;75.90
21834;DHT22;11079;51.092;3.458;2022-08-18T13:18:45;39.90;74.60
21834;DHT22;11079;51.092;3.458;2022-08-18T13:21:14;40.00;72.40
21834;DHT22;11079;51.092;3.458;2022-08-18T13:23:40;40.40;72.90
21834;DHT22;11079;51.092;3.458;2022-08-18T13:26:20;40.70;73.90
21834;DHT22;11079;51.092;3.458;2022-08-18T13:28:49;39.90;74.30
21834;DHT22;11079;51.092;3.458;2022-08-18T13:31:14;38.40;75.90
21834;DHT22;11079;51.092;3.458;2022-08-18T13:33:40;37.10;76.80
21834;DHT22;11079;51.092;3.458;2022-08-18T13:36:07;35.90;79.70
21834;DHT22;11079;51.092;3.458;2022-08-18T13:38:32;35.00;82.00
21834;DHT22;11079;51.092;3.458;2022-08-18T13:40:59;34.40;84.40
21834;DHT22;11079;51.092;3.458;2022-08-18T13:43:35;33.70;87.20
21834;DHT22;11079;51.092;3.458;2022-08-18T13:46:04;33.00;90.50
21834;DHT22;11079;51.092;3.458;2022-08-18T13:48:31;32.30;90.90
21834;DHT22;11079;51.092;3.458;2022-08-18T13:50:58;31.90;91.40
21834;DHT22;11079;51.092;3.458;2022-08-18T13:53:26;31.60;92.70
21834;DHT22;11079;51.092;3.458;2022-08-18T13:55:54;31.40;94.00
21834;DHT22;11079;51.092;3.458;2022-08-18T13:58:22;31.10;95.40
21834;DHT22;11079;51.092;3.458;2022-08-18T14:00:50;30.70;96.90
21834;DHT22;11079;51.092;3.458;2022-08-18T14:03:19;30.60;98.20
21834;DHT22;11079;51.092;3.458;2022-08-18T14:05:48;30.40;99.40
21834;DHT22;11079;51.092;3.458;2022-08-18T14:08:14;30.20;99.90
21834;DHT22;11079;51.092;3.458;2022-08-18T14:10:40;29.80;99.90
21834;DHT22;11079;51.092;3.458;2022-08-18T14:13:05;29.30;99.90
21834;DHT22;11079;51.092;3.458;2022-08-18T14:15:33;29.00;99.90
21834;DHT22;11079;51.092;3.458;2022-08-18T14:18:02;28.90;99.90
21834;DHT22;11079;51.092;3.458;2022-08-18T14:20:28;28.60;99.90
21834;DHT22;11079;51.092;3.458;2022-08-18T14:23:12;28.40;99.90
21834;DHT22;11079;51.092;3.458;2022-08-18T14:25:56;28.30;99.90
21834;DHT22;11079;51.092;3.458;2022-08-18T14:28:40;28.10;99.90
21834;DHT22;11079;51.092;3.458;2022-08-18T14:31:06;27.90;99.90
21834;DHT22;11079;51.092;3.458;2022-08-18T14:33:33;27.80;99.90
21834;DHT22;11079;51.092;3.458;2022-08-18T14:35:58;27.70;99.90
21834;DHT22;11079;51.092;3.458;2022-08-18T14:38:24;27.60;99.90
21834;DHT22;11079;51.092;3.458;2022-08-18T14:40:50;27.70;99.90
21834;DHT22;11079;51.092;3.458;2022-08-18T14:43:18;27.80;99.90
21834;DHT22;11079;51.092;3.458;2022-08-18T14:45:47;28.00;99.90
21834;DHT22;11079;51.092;3.458;2022-08-18T14:48:19;28.10;99.90
21834;DHT22;11079;51.092;3.458;2022-08-18T14:50:48;28.10;99.90
21834;DHT22;11079;51.092;3.458;2022-08-18T14:53:20;27.90;99.90
21834;DHT22;11079;51.092;3.458;2022-08-18T14:55:47;28.00;99.90
21834;DHT22;11079;51.092;3.458;2022-08-18T14:58:30;28.00;99.90
21834;DHT22;11079;51.092;3.458;2022-08-18T15:00:59;28.10;99.90
21834;DHT22;11079;51.092;3.458;2022-08-18T15:03:28;28.20;99.90
21834;DHT22;11079;51.092;3.458;2022-08-18T15:05:54;28.30;99.90
21834;DHT22;11079;51.092;3.458;2022-08-18T15:08:20;28.70;99.90
21834;DHT22;11079;51.092;3.458;2022-08-18T15:10:47;28.90;99.90
21834;DHT22;11079;51.092;3.458;2022-08-18T15:13:13;29.10;99.90
21834;DHT22;11079;51.092;3.458;2022-08-18T15:15:39;29.50;99.90
21834;DHT22;11079;51.092;3.458;2022-08-18T15:18:05;29.80;99.90
21834;DHT22;11079;51.092;3.458;2022-08-18T15:20:33;30.20;99.90
21834;DHT22;11079;51.092;3.458;2022-08-18T15:23:19;30.40;99.90
21834;DHT22;11079;51.092;3.458;2022-08-18T15:26:03;30.40;99.90
21834;DHT22;11079;51.092;3.458;2022-08-18T15:28:28;30.40;99.90
21834;DHT22;11079;51.092;3.458;2022-08-18T15:30:54;30.10;99.90
21834;DHT22;11079;51.092;3.458;2022-08-18T15:33:20;30.10;99.90
21834;DHT22;11079;51.092;3.458;2022-08-18T15:35:47;30.20;99.90
21834;DHT22;11079;51.092;3.458;2022-08-18T15:38:17;30.10;99.90
21834;DHT22;11079;51.092;3.458;2022-08-18T15:40:55;30.40;99.90
21834;DHT22;11079;51.092;3.458;2022-08-18T15:43:28;30.50;99.90
21834;DHT22;11079;51.092;3.458;2022-08-18T15:45:55;29.90;99.90
21834;DHT22;11079;51.092;3.458;2022-08-18T15:48:22;29.80;99.90
21834;DHT22;11079;51.092;3.458;2022-08-18T15:50:49;29.80;99.90
21834;DHT22;11079;51.092;3.458;2022-08-18T15:53:18;29.70;99.90
21834;DHT22;11079;51.092;3.458;2022-08-18T15:55:44;29.60;99.90
21834;DHT22;11079;51.092;3.458;2022-08-18T15:58:11;29.40;99.90
21834;DHT22;11079;51.092;3.458;2022-08-18T16:00:39;29.20;99.90
21834;DHT22;11079;51.092;3.458;2022-08-18T16:03:08;29.00;99.90
21834;DHT22;11079;51.092;3.458;2022-08-18T16:05:40;29.00;99.90
21834;DHT22;11079;51.092;3.458;2022-08-18T16:08:07;28.90;99.90
21834;DHT22;11079;51.092;3.458;2022-08-18T16:10:36;28.70;99.90
21834;DHT22;11079;51.092;3.458;2022-08-18T16:13:03;28.70;99.90
21834;DHT22;11079;51.092;3.458;2022-08-18T16:15:34;28.70;99.90
21834;DHT22;11079;51.092;3.458;2022-08-18T16:18:00;28.70;99.90
21834;DHT22;11079;51.092;3.458;2022-08-18T16:20:26;28.60;99.90
21834;DHT22;11079;51.092;3.458;2022-08-18T16:22:54;28.60;99.90
21834;DHT22;11079;51.092;3.458;2022-08-18T16:25:20;28.50;99.90
21834;DHT22;11079;51.092;3.458;2022-08-18T16:27:46;28.50;99.90
21834;DHT22;11079;51.092;3.458;2022-08-18T16:30:23;28.30;99.90
21834;DHT22;11079;51.092;3.458;2022-08-18T16:32:50;28.40;99.90
21834;DHT22;11079;51.092;3.458;2022-08-18T16:35:17;28.20;99.90
21834;DHT22;11079;51.092;3.458;2022-08-18T16:37:43;28.00;99.90
21834;DHT22;11079;51.092;3.458;2022-08-18T16:40:12;28.00;99.90
21834;DHT22;11079;51.092;3.458;2022-08-18T16:42:38;28.00;99.90
21834;DHT22;11079;51.092;3.458;2022-08-18T16:45:05;28.00;99.90
21834;DHT22;11079;51.092;3.458;2022-08-18T16:47:32;27.90;99.90
21834;DHT22;11079;51.092;3.458;2022-08-18T16:50:14;27.80;99.90
21834;DHT22;11079;51.092;3.458;2022-08-18T16:52:50;27.80;99.90
21834;DHT22;11079;51.092;3.458;2022-08-18T16:55:15;27.80;99.90
21834;DHT22;11079;51.092;3.458;2022-08-18T16:57:42;27.70;99.90
21834;DHT22;11079;51.092;3.458;2022-08-18T17:00:27;27.60;99.90
21834;DHT22;11079;51.092;3.458;2022-08-18T17:03:12;27.80;99.90
21834;DHT22;11079;51.092;3.458;2022-08-18T17:06:01;27.80;99.90
21834;DHT22;11079;51.092;3.458;2022-08-18T17:08:27;27.50;99.90
21834;DHT22;11079;51.092;3.458;2022-08-18T17:10:53;27.40;99.90
21834;DHT22;11079;51.092;3.458;2022-08-18T17:13:19;27.50;99.90
21834;DHT22;11079;51.092;3.458;2022-08-18T17:15:49;27.40;99.90
21834;DHT22;11079;51.092;3.458;2022-08-18T17:18:14;27.40;99.90
21834;DHT22;11079;51.092;3.458;2022-08-18T17:20:40;27.40;99.90
21834;DHT22;11079;51.092;3.458;2022-08-18T17:23:06;27.40;99.90
21834;DHT22;11079;51.092;3.458;2022-08-18T17:25:33;27.40;99.90
21834;DHT22;11079;51.092;3.458;2022-08-18T17:28:00;27.40;99.90
21834;DHT22;11079;51.092;3.458;2022-08-18T17:30:29;27.40;99.90
21834;DHT22;11079;51.092;3.458;2022-08-18T17:33:00;27.30;99.90
21834;DHT22;11079;51.092;3.458;2022-08-18T17:35:35;27.10;99.90
21834;DHT22;11079;51.092;3.458;2022-08-18T17:40:53;27.10;99.90
21834;DHT22;11079;51.092;3.458;2022-08-18T17:43:25;27.10;99.90
21834;DHT22;11079;51.092;3.458;2022-08-18T17:46:04;26.90;99.90
21834;DHT22;11079;51.092;3.458;2022-08-18T17:48:46;26.80;99.90
21834;DHT22;11079;51.092;3.458;2022-08-18T17:51:30;26.70;99.90
21834;DHT22;11079;51.092;3.458;2022-08-18T17:56:59;26.70;99.90
21834;DHT22;11079;51.092;3.458;2022-08-18T18:02:20;26.40;99.90
21834;DHT22;11079;51.092;3.458;2022-08-18T18:04:47;26.40;99.90
21834;DHT22;11079;51.092;3.458;2022-08-18T18:10:42;26.20;99.90
21834;DHT22;11079;51.092;3.458;2022-08-18T18:13:20;26.00;99.90
21834;DHT22;11079;51.092;3.458;2022-08-18T18:15:58;25.80;99.90
21834;DHT22;11079;51.092;3.458;2022-08-18T18:18:37;25.80;99.90
21834;DHT22;11079;51.092;3.458;2022-08-18T18:23:46;25.60;99.90
21834;DHT22;11079;51.092;3.458;2022-08-18T18:26:36;25.40;99.90
21834;DHT22;11079;51.092;3.458;2022-08-18T18:37:26;24.90;99.90
21834;DHT22;11079;51.092;3.458;2022-08-18T18:39:59;24.70;99.90